Time,TemperatureF,DewpointF,PressureIn,WindDirection,WindDirectionDegrees,WindSpeedMPH,WindSpeedGustMPH,Humidity,HourlyPrecipIn,Conditions,Clouds,dailyrainin,SoftwareType,DateUTC
2013-07-07 00:00:00,67.2,66.0,29.98,North,5,0.0,0.0,96,0.00,,,0.00,Wunderground v.1.15,2013-07-07 04:00:00,
2013-07-07 00:05:00,67.1,65.9,29.98,North,5,0.0,0.0,96,0.00,,,0.00,Wunderground v.1.15,2013-07-07 04:05:00,
2013-07-07 00:10:00,67.1,65.9,29.99,North,5,0.0,0.0,96,0.00,,,0.00,Wunderground v.1.15,2013-07-07 04:10:00,
2013-07-07 00:15:00,67.1,65.9,29.99,North,5,0.0,0.0,96,0.00,,,0.00,Wunderground v.1.15,2013-07-07 04:15:00,
2013-07-07 00:20:00,67.2,66.3,29.99,North,5,0.0,0.0,97,0.00,,,0.00,Wunderground v.1.15,2013-07-07 04:20:00,
2013-07-07 00:25:00,67.3,66.4,29.99,North,360,0.0,0.0,97,0.00,,,0.00,Wunderground v.1.15,2013-07-07 04:25:00,
2013-07-07 00:30:00,67.3,66.4,29.99,North,360,0.0,0.0,97,0.00,,,0.00,Wunderground v.1.15,2013-07-07 04:30:00,
2013-07-07 00:40:00,67.5,66.6,29.99,North,5,0.0,0.0,97,0.00,,,0.00,Wunderground v.1.15,2013-07-07 04:40:00,
2013-07-07 00:50:00,67.4,66.5,29.98,North,5,0.0,0.0,97,0.00,,,0.00,Wunderground v.1.15,2013-07-07 04:50:00,
2013-07-07 00:55:00,67.3,66.4,29.98,North,5,0.0,0.0,97,0.00,,,0.00,Wunderground v.1.15,2013-07-07 04:55:00,
2013-07-07 01:05:00,67.2,66.3,29.98,North,5,0.0,0.0,97,0.00,,,0.00,Wunderground v.1.15,2013-07-07 05:05:00,
2013-07-07 01:15:00,67.1,66.2,29.98,North,5,0.0,0.0,97,0.00,,,0.00,Wunderground v.1.15,2013-07-07 05:15:00,
2013-07-07 01:20:00,67.1,66.2,29.98,North,5,0.0,0.0,97,0.00,,,0.00,Wunderground v.1.15,2013-07-07 05:20:00,
2013-07-07 01:25:00,67.3,66.4,29.98,North,5,0.0,0.0,97,0.00,,,0.00,Wunderground v.1.15,2013-07-07 05:25:00,
2013-07-07 01:35:00,67.5,66.3,29.98,North,5,0.0,0.0,96,0.00,,,0.00,Wunderground v.1.15,2013-07-07 05:35:00,
2013-07-07 01:40:00,67.5,66.3,29.98,North,5,0.0,0.0,96,0.00,,,0.00,Wunderground v.1.15,2013-07-07 05:40:00,
2013-07-07 01:50:00,67.3,66.1,29.98,North,5,0.0,0.0,96,0.00,,,0.00,Wunderground v.1.15,2013-07-07 05:50:00,
2013-07-07 01:55:00,67.2,66.0,29.98,North,5,0.0,0.0,96,0.00,,,0.00,Wunderground v.1.15,2013-07-07 05:55:00,
2013-07-07 02:05:00,67.5,66.3,29.98,North,5,0.0,0.0,96,0.00,,,0.00,Wunderground v.1.15,2013-07-07 06:05:00,
2013-07-07 02:15:00,68.0,66.5,29.98,North,5,0.0,0.0,95,0.00,,,0.00,Wunderground v.1.15,2013-07-07 06:15:00,
2013-07-07 02:20:00,68.4,66.9,29.98,North,360,0.0,0.0,95,0.00,,,0.00,Wunderground v.1.15,2013-07-07 06:20:00,
2013-07-07 02:25:00,68.5,66.4,29.98,North,5,0.0,0.0,93,0.00,,,0.00,Wunderground v.1.15,2013-07-07 06:25:00,
2013-07-07 02:35:00,68.6,66.5,29.98,North,5,0.0,0.0,93,0.00,,,0.00,Wunderground v.1.15,2013-07-07 06:35:00,
2013-07-07 02:40:00,68.4,66.3,29.98,North,5,0.0,0.0,93,0.00,,,0.00,Wunderground v.1.15,2013-07-07 06:40:00,
2013-07-07 02:50:00,67.9,65.8,29.98,North,5,0.0,0.0,93,0.00,,,0.00,Wunderground v.1.15,2013-07-07 06:50:00,
2013-07-07 03:00:00,67.4,65.6,29.98,North,5,0.0,0.0,94,0.00,,,0.00,Wunderground v.1.15,2013-07-07 07:00:00,
2013-07-07 03:05:00,67.2,65.4,29.97,North,5,0.0,0.0,94,0.00,,,0.00,Wunderground v.1.15,2013-07-07 07:05:00,
2013-07-07 03:15:00,66.9,65.1,29.97,North,360,0.0,0.0,94,0.00,,,0.00,Wunderground v.1.15,2013-07-07 07:15:00,
2013-07-07 03:20:00,66.7,64.9,29.97,North,360,0.0,0.0,94,0.00,,,0.00,Wunderground v.1.15,2013-07-07 07:20:00,
2013-07-07 03:25:00,66.5,65.0,29.97,North,360,0.0,0.0,95,0.00,,,0.00,Wunderground v.1.15,2013-07-07 07:25:00,
2013-07-07 03:35:00,66.3,64.8,29.97,North,5,0.0,0.0,95,0.00,,,0.00,Wunderground v.1.15,2013-07-07 07:35:00,
2013-07-07 03:40:00,66.2,64.7,29.97,North,5,0.0,0.0,95,0.00,,,0.00,Wunderground v.1.15,2013-07-07 07:40:00,
2013-07-07 03:50:00,66.1,64.9,29.97,North,360,0.0,0.0,96,0.00,,,0.00,Wunderground v.1.15,2013-07-07 07:50:00,
2013-07-07 03:55:00,66.0,64.8,29.97,North,360,0.0,0.0,96,0.00,,,0.00,Wunderground v.1.15,2013-07-07 07:55:00,
2013-07-07 04:00:00,66.0,64.8,29.97,North,360,0.0,0.0,96,0.00,,,0.00,Wunderground v.1.15,2013-07-07 08:00:00,
2013-07-07 04:05:00,65.9,64.7,29.97,North,360,0.0,0.0,96,0.00,,,0.00,Wunderground v.1.15,2013-07-07 08:05:00,
2013-07-07 04:10:00,65.9,64.7,29.97,North,360,0.0,0.0,96,0.00,,,0.00,Wunderground v.1.15,2013-07-07 08:10:00,
2013-07-07 04:20:00,65.9,64.7,29.97,North,5,0.0,0.0,96,0.00,,,0.00,Wunderground v.1.15,2013-07-07 08:20:00,
2013-07-07 04:25:00,65.9,64.7,29.97,North,5,0.0,0.0,96,0.00,,,0.00,Wunderground v.1.15,2013-07-07 08:25:00,
2013-07-07 04:30:00,66.0,64.8,29.97,North,5,0.0,0.0,96,0.00,,,0.00,Wunderground v.1.15,2013-07-07 08:30:00,
2013-07-07 04:40:00,66.0,64.8,29.97,North,5,0.0,0.0,96,0.00,,,0.00,Wunderground v.1.15,2013-07-07 08:40:00,
2013-07-07 04:45:00,66.0,64.8,29.97,North,5,0.0,0.0,96,0.00,,,0.00,Wunderground v.1.15,2013-07-07 08:45:00,
2013-07-07 04:55:00,66.2,65.0,29.97,North,360,0.0,0.0,96,0.00,,,0.00,Wunderground v.1.15,2013-07-07 08:55:00,
2013-07-07 05:00:00,66.3,65.1,29.97,North,360,0.0,0.0,96,0.00,,,0.00,Wunderground v.1.15,2013-07-07 09:00:00,
2013-07-07 05:05:00,66.4,64.9,29.97,North,5,0.0,0.0,95,0.00,,,0.00,Wunderground v.1.15,2013-07-07 09:05:00,
2013-07-07 05:15:00,67.0,65.2,29.96,North,5,0.0,0.0,94,0.00,,,0.00,Wunderground v.1.15,2013-07-07 09:15:00,
2013-07-07 05:20:00,67.4,65.6,29.97,SW,223,0.0,0.0,94,0.00,,,0.00,Wunderground v.1.15,2013-07-07 09:20:00,
2013-07-07 05:30:00,68.1,66.0,29.97,SW,215,0.0,0.0,93,0.00,,,0.00,Wunderground v.1.15,2013-07-07 09:30:00,
2013-07-07 05:40:00,68.6,65.5,29.97,SW,221,0.0,0.0,90,0.00,,,0.00,Wunderground v.1.15,2013-07-07 09:40:00,
2013-07-07 05:45:00,68.8,65.4,29.97,SW,221,0.0,0.0,89,0.00,,,0.00,Wunderground v.1.15,2013-07-07 09:45:00,
2013-07-07 05:55:00,69.2,65.5,29.97,SW,221,0.0,0.0,88,0.00,,,0.00,Wunderground v.1.15,2013-07-07 09:55:00,
2013-07-07 06:00:00,69.3,65.9,29.98,SW,221,0.0,0.0,89,0.00,,,0.00,Wunderground v.1.15,2013-07-07 10:00:00,
2013-07-07 06:05:00,69.3,65.9,29.97,SW,221,0.0,0.0,89,0.00,,,0.00,Wunderground v.1.15,2013-07-07 10:05:00,
2013-07-07 06:15:00,69.2,65.8,29.98,SW,221,0.0,0.0,89,0.00,,,0.00,Wunderground v.1.15,2013-07-07 10:15:00,
2013-07-07 06:25:00,69.1,66.4,29.98,SW,221,0.0,0.0,91,0.00,,,0.00,Wunderground v.1.15,2013-07-07 10:25:00,
2013-07-07 06:30:00,69.2,66.5,29.98,SW,221,0.0,0.0,91,0.00,,,0.00,Wunderground v.1.15,2013-07-07 10:30:00,
2013-07-07 06:40:00,69.8,66.7,29.98,SSW,210,0.0,1.0,90,0.00,,,0.00,Wunderground v.1.15,2013-07-07 10:40:00,
2013-07-07 06:45:00,70.1,66.7,29.98,SW,214,0.0,1.0,89,0.00,,,0.00,Wunderground v.1.15,2013-07-07 10:45:00,
2013-07-07 06:55:00,70.4,66.7,29.98,SW,215,0.0,0.0,88,0.00,,,0.00,Wunderground v.1.15,2013-07-07 10:55:00,
2013-07-07 07:00:00,70.6,66.5,29.98,SW,215,0.0,0.0,87,0.00,,,0.00,Wunderground v.1.15,2013-07-07 11:00:00,
2013-07-07 07:05:00,70.7,66.6,29.98,South,180,0.0,3.0,87,0.00,,,0.00,Wunderground v.1.15,2013-07-07 11:05:00,
2013-07-07 07:15:00,71.0,66.3,29.98,South,180,0.0,1.0,85,0.00,,,0.00,Wunderground v.1.15,2013-07-07 11:15:00,
2013-07-07 07:25:00,71.3,66.2,29.98,South,181,0.0,1.0,84,0.00,,,0.00,Wunderground v.1.15,2013-07-07 11:25:00,
2013-07-07 07:30:00,71.4,66.3,29.98,South,171,0.0,1.0,84,0.00,,,0.00,Wunderground v.1.15,2013-07-07 11:30:00,
2013-07-07 07:35:00,71.6,66.5,29.98,South,171,0.0,1.0,84,0.00,,,0.00,Wunderground v.1.15,2013-07-07 11:35:00,
2013-07-07 07:45:00,72.3,66.8,29.98,South,186,0.0,0.0,83,0.00,,,0.00,Wunderground v.1.15,2013-07-07 11:45:00,
2013-07-07 07:50:00,72.6,66.4,29.98,South,186,0.0,1.0,81,0.00,,,0.00,Wunderground v.1.15,2013-07-07 11:50:00,
2013-07-07 07:55:00,72.8,66.6,29.98,South,185,0.0,1.0,81,0.00,,,0.00,Wunderground v.1.15,2013-07-07 11:55:00,
2013-07-07 08:05:00,72.8,67.0,29.98,SW,221,0.0,0.0,82,0.00,,,0.00,Wunderground v.1.15,2013-07-07 12:05:00,
2013-07-07 08:15:00,73.5,66.9,29.99,North,360,0.0,0.0,80,0.00,,,0.00,Wunderground v.1.15,2013-07-07 12:15:00,
2013-07-07 08:20:00,74.1,67.5,29.99,NNW,342,0.0,0.0,80,0.00,,,0.00,Wunderground v.1.15,2013-07-07 12:20:00,
2013-07-07 08:30:00,75.6,69.0,29.99,SSW,206,0.0,0.0,80,0.00,,,0.00,Wunderground v.1.15,2013-07-07 12:30:00,
2013-07-07 08:35:00,76.2,67.7,29.99,SSW,207,0.0,1.0,75,0.00,,,0.00,Wunderground v.1.15,2013-07-07 12:35:00,
2013-07-07 08:45:00,76.9,68.4,29.99,South,178,0.0,1.0,75,0.00,,,0.00,Wunderground v.1.15,2013-07-07 12:45:00,
2013-07-07 08:50:00,77.4,68.1,29.99,South,188,1.0,1.0,73,0.00,,,0.00,Wunderground v.1.15,2013-07-07 12:50:00,
2013-07-07 09:00:00,77.9,68.1,29.98,South,188,1.0,1.0,72,0.00,,,0.00,Wunderground v.1.15,2013-07-07 13:00:00,
2013-07-07 09:05:00,78.3,68.5,29.98,SSW,194,1.0,1.0,72,0.00,,,0.00,Wunderground v.1.15,2013-07-07 13:05:00,
2013-07-07 09:15:00,79.0,68.8,29.98,South,178,1.0,3.0,71,0.00,,,0.00,Wunderground v.1.15,2013-07-07 13:15:00,
2013-07-07 09:20:00,79.2,69.8,29.98,South,181,1.0,1.0,73,0.00,,,0.00,Wunderground v.1.15,2013-07-07 13:20:00,
2013-07-07 09:30:00,78.9,68.7,29.98,South,182,0.0,0.0,71,0.00,,,0.00,Wunderground v.1.15,2013-07-07 13:30:00,
2013-07-07 09:35:00,78.7,68.5,29.97,South,182,0.0,0.0,71,0.00,,,0.00,Wunderground v.1.15,2013-07-07 13:35:00,
2013-07-07 09:45:00,78.8,67.8,29.97,South,182,0.0,1.0,69,0.00,,,0.00,Wunderground v.1.15,2013-07-07 13:45:00,
2013-07-07 09:50:00,78.7,66.8,29.97,South,182,0.0,0.0,67,0.00,,,0.00,Wunderground v.1.15,2013-07-07 13:50:00,
2013-07-07 09:55:00,78.7,68.9,29.97,South,182,0.0,0.0,72,0.00,,,0.00,Wunderground v.1.15,2013-07-07 13:55:00,
2013-07-07 10:05:00,79.1,69.7,29.97,South,179,0.0,0.0,73,0.00,,,0.00,Wunderground v.1.15,2013-07-07 14:05:00,
2013-07-07 10:15:00,79.4,68.8,29.97,South,190,1.0,1.0,70,0.00,,,0.00,Wunderground v.1.15,2013-07-07 14:15:00,
2013-07-07 10:20:00,79.2,69.0,29.97,South,187,1.0,3.0,71,0.00,,,0.00,Wunderground v.1.15,2013-07-07 14:20:00,
2013-07-07 10:25:00,79.0,68.0,29.97,South,177,1.0,3.0,69,0.00,,,0.00,Wunderground v.1.15,2013-07-07 14:25:00,
2013-07-07 10:35:00,79.1,67.6,29.98,SSE,164,1.0,1.0,68,0.00,,,0.00,Wunderground v.1.15,2013-07-07 14:35:00,
2013-07-07 10:40:00,79.0,68.0,29.98,South,180,1.0,1.0,69,0.00,,,0.00,Wunderground v.1.15,2013-07-07 14:40:00,
2013-07-07 10:45:00,78.8,67.3,29.98,South,174,1.0,2.0,68,0.00,,,0.00,Wunderground v.1.15,2013-07-07 14:45:00,
2013-07-07 10:55:00,78.6,68.0,29.98,West,277,1.0,1.0,70,0.00,,,0.00,Wunderground v.1.15,2013-07-07 14:55:00,
2013-07-07 11:00:00,78.7,68.9,29.97,SSW,198,0.0,2.0,72,0.00,,,0.00,Wunderground v.1.15,2013-07-07 15:00:00,
2013-07-07 11:05:00,78.9,68.7,29.97,WNW,286,0.0,2.0,71,0.00,,,0.00,Wunderground v.1.15,2013-07-07 15:05:00,
2013-07-07 11:15:00,79.6,68.1,29.97,East,96,1.0,1.0,68,0.00,,,0.00,Wunderground v.1.15,2013-07-07 15:15:00,
2013-07-07 11:25:00,79.6,68.5,29.97,South,170,0.0,1.0,69,0.00,,,0.00,Wunderground v.1.15,2013-07-07 15:25:00,
2013-07-07 11:30:00,79.6,68.1,29.97,South,173,0.0,0.0,68,0.00,,,0.00,Wunderground v.1.15,2013-07-07 15:30:00,
2013-07-07 11:35:00,79.9,69.2,29.97,SSW,198,0.0,0.0,70,0.00,,,0.00,Wunderground v.1.15,2013-07-07 15:35:00,
2013-07-07 11:45:00,80.6,71.1,29.97,South,183,1.0,2.0,73,0.00,,,0.00,Wunderground v.1.15,2013-07-07 15:45:00,
2013-07-07 11:50:00,81.5,71.6,29.97,South,169,1.0,1.0,72,0.00,,,0.00,Wunderground v.1.15,2013-07-07 15:50:00,
2013-07-07 11:55:00,82.0,69.1,29.97,NNW,337,1.0,2.0,65,0.00,,,0.00,Wunderground v.1.15,2013-07-07 15:55:00,
2013-07-07 12:05:00,82.2,69.3,29.97,SSW,202,1.0,2.0,65,0.00,,,0.00,Wunderground v.1.15,2013-07-07 16:05:00,
2013-07-07 12:15:00,82.5,67.2,29.97,WNW,300,1.0,2.0,60,0.00,,,0.00,Wunderground v.1.15,2013-07-07 16:15:00,
2013-07-07 12:20:00,82.4,69.0,29.97,SSW,192,1.0,2.0,64,0.00,,,0.00,Wunderground v.1.15,2013-07-07 16:20:00,
2013-07-07 12:30:00,82.4,68.5,29.97,SSW,213,1.0,1.0,63,0.00,,,0.00,Wunderground v.1.15,2013-07-07 16:30:00,
2013-07-07 12:35:00,81.9,68.5,29.97,South,177,1.0,1.0,64,0.00,,,0.00,Wunderground v.1.15,2013-07-07 16:35:00,
2013-07-07 12:45:00,82.3,71.1,29.96,SSE,163,1.0,2.0,69,0.00,,,0.00,Wunderground v.1.15,2013-07-07 16:45:00,
2013-07-07 12:50:00,82.8,69.8,29.96,SSE,157,2.0,2.0,65,0.00,,,0.00,Wunderground v.1.15,2013-07-07 16:50:00,
2013-07-07 13:00:00,82.8,68.9,29.96,SSE,167,1.0,1.0,63,0.00,,,0.00,Wunderground v.1.15,2013-07-07 17:00:00,
2013-07-07 13:05:00,82.3,68.4,29.96,South,181,1.0,3.0,63,0.00,,,0.00,Wunderground v.1.15,2013-07-07 17:05:00,
2013-07-07 13:15:00,81.4,68.5,29.96,South,190,2.0,2.0,65,0.00,,,0.00,Wunderground v.1.15,2013-07-07 17:15:00,
2013-07-07 13:25:00,81.5,67.7,29.95,SSW,193,1.0,2.0,63,0.00,,,0.00,Wunderground v.1.15,2013-07-07 17:25:00,
2013-07-07 13:35:00,82.6,68.7,29.95,SSW,206,2.0,2.0,63,0.00,,,0.00,Wunderground v.1.15,2013-07-07 17:35:00,
2013-07-07 13:40:00,82.9,68.5,29.95,South,183,2.0,3.0,62,0.00,,,0.00,Wunderground v.1.15,2013-07-07 17:40:00,
2013-07-07 13:50:00,83.7,69.8,29.94,SSW,207,0.0,0.0,63,0.00,,,0.00,Wunderground v.1.15,2013-07-07 17:50:00,
2013-07-07 13:55:00,84.1,68.7,29.94,WNW,303,0.0,0.0,60,0.00,,,0.00,Wunderground v.1.15,2013-07-07 17:55:00,
2013-07-07 14:00:00,84.5,69.1,29.94,SSW,209,0.0,0.0,60,0.00,,,0.00,Wunderground v.1.15,2013-07-07 18:00:00,
2013-07-07 14:05:00,84.7,69.8,29.94,SSW,211,0.0,0.0,61,0.00,,,0.00,Wunderground v.1.15,2013-07-07 18:05:00,
2013-07-07 14:15:00,84.9,68.5,29.93,SE,141,0.0,0.0,58,0.00,,,0.00,Wunderground v.1.15,2013-07-07 18:15:00,
2013-07-07 14:25:00,85.2,67.2,29.94,NW,323,0.0,0.0,55,0.00,,,0.00,Wunderground v.1.15,2013-07-07 18:25:00,
2013-07-07 14:35:00,85.4,68.4,29.93,SSW,196,0.0,2.0,57,0.00,,,0.00,Wunderground v.1.15,2013-07-07 18:35:00,
2013-07-07 14:45:00,85.8,68.3,29.92,SSE,163,1.0,1.0,56,0.00,,,0.00,Wunderground v.1.15,2013-07-07 18:45:00,
2013-07-07 14:50:00,85.7,69.7,29.92,SSE,163,0.0,1.0,59,0.00,,,0.00,Wunderground v.1.15,2013-07-07 18:50:00,
2013-07-07 14:55:00,85.7,68.2,29.92,NNW,335,1.0,1.0,56,0.00,,,0.00,Wunderground v.1.15,2013-07-07 18:55:00,
2013-07-07 15:00:00,85.9,69.4,29.92,North,355,1.0,1.0,58,0.00,,,0.00,Wunderground v.1.15,2013-07-07 19:00:00,
2013-07-07 15:05:00,86.0,69.0,29.91,North,355,0.0,1.0,57,0.00,,,0.00,Wunderground v.1.15,2013-07-07 19:05:00,
2013-07-07 15:15:00,86.2,71.2,29.91,North,355,1.0,1.0,61,0.00,,,0.00,Wunderground v.1.15,2013-07-07 19:15:00,
2013-07-07 15:25:00,86.3,68.8,29.91,West,275,0.0,0.0,56,0.00,,,0.00,Wunderground v.1.15,2013-07-07 19:25:00,
2013-07-07 15:30:00,86.6,71.5,29.90,SW,217,0.0,0.0,61,0.00,,,0.00,Wunderground v.1.15,2013-07-07 19:30:00,
2013-07-07 15:35:00,87.0,72.4,29.90,South,176,0.0,2.0,62,0.00,,,0.00,Wunderground v.1.15,2013-07-07 19:35:00,
2013-07-07 15:45:00,86.5,71.5,29.90,SSW,192,1.0,2.0,61,0.00,,,0.00,Wunderground v.1.15,2013-07-07 19:45:00,
2013-07-07 15:50:00,86.3,69.8,29.90,SSW,192,0.0,1.0,58,0.00,,,0.00,Wunderground v.1.15,2013-07-07 19:50:00,
2013-07-07 16:00:00,86.0,70.0,29.90,SSW,200,0.0,1.0,59,0.00,,,0.00,Wunderground v.1.15,2013-07-07 20:00:00,
2013-07-07 16:05:00,86.1,69.6,29.90,SSW,200,0.0,1.0,58,0.00,,,0.00,Wunderground v.1.15,2013-07-07 20:05:00,
2013-07-07 16:15:00,85.9,73.2,29.90,SSW,200,0.0,0.0,66,0.00,,,0.00,Wunderground v.1.15,2013-07-07 20:15:00,
2013-07-07 16:20:00,85.7,73.0,29.90,SSW,200,0.0,0.0,66,0.00,,,0.00,Wunderground v.1.15,2013-07-07 20:20:00,
2013-07-07 16:30:00,85.4,74.5,29.90,SSW,200,0.0,0.0,70,0.00,,,0.00,Wunderground v.1.15,2013-07-07 20:30:00,
2013-07-07 16:35:00,85.0,75.0,29.89,SSW,200,0.0,0.0,72,0.00,,,0.00,Wunderground v.1.15,2013-07-07 20:35:00,
2013-07-07 16:45:00,83.9,76.3,29.89,SSW,200,0.0,0.0,78,0.00,,,0.00,Wunderground v.1.15,2013-07-07 20:45:00,
2013-07-07 16:50:00,83.3,76.1,29.89,SSW,200,0.0,0.0,79,0.00,,,0.00,Wunderground v.1.15,2013-07-07 20:50:00,
2013-07-07 17:00:00,82.5,74.2,29.89,SSW,200,0.0,0.0,76,0.00,,,0.00,Wunderground v.1.15,2013-07-07 21:00:00,
2013-07-07 17:05:00,82.4,74.5,29.89,SSW,200,0.0,0.0,77,0.00,,,0.00,Wunderground v.1.15,2013-07-07 21:05:00,
2013-07-07 17:15:00,82.4,73.3,29.89,SSW,200,0.0,0.0,74,0.00,,,0.00,Wunderground v.1.15,2013-07-07 21:15:00,
2013-07-07 17:25:00,83.4,74.6,29.89,SSW,199,0.0,0.0,75,0.00,,,0.00,Wunderground v.1.15,2013-07-07 21:25:00,
2013-07-07 17:30:00,84.3,73.0,29.88,SSW,198,0.0,0.0,69,0.00,,,0.00,Wunderground v.1.15,2013-07-07 21:30:00,
2013-07-07 17:35:00,85.2,73.4,29.88,SSW,202,0.0,0.0,68,0.00,,,0.00,Wunderground v.1.15,2013-07-07 21:35:00,
2013-07-07 17:45:00,86.1,72.5,29.88,NE,42,0.0,1.0,64,0.00,,,0.00,Wunderground v.1.15,2013-07-07 21:45:00,
2013-07-07 17:50:00,85.7,72.6,29.88,NE,42,0.0,0.0,65,0.00,,,0.00,Wunderground v.1.15,2013-07-07 21:50:00,
2013-07-07 18:00:00,84.6,72.9,29.88,NE,42,0.0,0.0,68,0.00,,,0.00,Wunderground v.1.15,2013-07-07 22:00:00,
2013-07-07 18:05:00,84.4,72.7,29.88,NE,42,0.0,0.0,68,0.00,,,0.00,Wunderground v.1.15,2013-07-07 22:05:00,
2013-07-07 18:25:00,84.8,72.6,29.88,NNE,15,0.0,0.0,67,0.00,,,0.00,Wunderground v.1.15,2013-07-07 22:25:00,
2013-07-07 18:30:00,84.6,72.4,29.88,NNE,15,0.0,0.0,67,0.00,,,0.00,Wunderground v.1.15,2013-07-07 22:30:00,
2013-07-07 18:45:00,82.4,73.3,29.89,South,183,1.0,1.0,74,0.62,,,0.06,Wunderground v.1.15,2013-07-07 22:45:00,
2013-07-07 18:55:00,79.2,73.6,29.89,SE,134,0.0,0.0,83,0.06,,,0.07,Wunderground v.1.15,2013-07-07 22:55:00,
2013-07-07 19:00:00,78.4,73.9,29.89,SE,134,0.0,0.0,86,0.04,,,0.07,Wunderground v.1.15,2013-07-07 23:00:00,
2013-07-07 19:05:00,77.8,74.0,29.88,SE,134,0.0,0.0,88,0.00,,,0.07,Wunderground v.1.15,2013-07-07 23:05:00,
2013-07-07 19:10:00,77.3,73.8,29.89,SE,134,0.0,0.0,89,0.00,,,0.07,Wunderground v.1.15,2013-07-07 23:10:00,
2013-07-07 19:20:00,76.6,74.1,29.88,SE,134,0.0,0.0,92,0.00,,,0.07,Wunderground v.1.15,2013-07-07 23:20:00,
2013-07-07 19:25:00,76.3,73.8,29.88,SE,134,0.0,0.0,92,0.00,,,0.07,Wunderground v.1.15,2013-07-07 23:25:00,
2013-07-07 19:35:00,75.9,73.7,29.89,SE,134,0.0,0.0,93,0.00,,,0.07,Wunderground v.1.15,2013-07-07 23:35:00,
2013-07-07 19:45:00,75.6,73.4,29.89,SE,134,0.0,0.0,93,0.00,,,0.07,Wunderground v.1.15,2013-07-07 23:45:00,
2013-07-07 19:50:00,75.4,73.6,29.89,SE,134,0.0,0.0,94,0.00,,,0.07,Wunderground v.1.15,2013-07-07 23:50:00,
2013-07-07 20:00:00,75.3,73.5,29.89,SE,134,0.0,0.0,94,0.00,,,0.07,Wunderground v.1.15,2013-07-08 00:00:00,
2013-07-07 20:05:00,75.2,73.7,29.89,SE,134,0.0,0.0,95,0.00,,,0.07,Wunderground v.1.15,2013-07-08 00:05:00,
2013-07-07 20:15:00,75.1,73.6,29.89,SE,134,0.0,0.0,95,0.00,,,0.07,Wunderground v.1.15,2013-07-08 00:15:00,
2013-07-07 20:25:00,74.9,73.4,29.89,SE,134,0.0,0.0,95,0.00,,,0.07,Wunderground v.1.15,2013-07-08 00:25:00,
2013-07-07 20:30:00,74.8,73.6,29.88,SE,134,0.0,0.0,96,0.00,,,0.07,Wunderground v.1.15,2013-07-08 00:30:00,
2013-07-07 20:40:00,74.6,73.4,29.89,SE,134,0.0,1.0,96,0.00,,,0.07,Wunderground v.1.15,2013-07-08 00:40:00,
2013-07-07 20:45:00,74.5,73.3,29.90,SE,134,0.0,1.0,96,0.90,,,0.11,Wunderground v.1.15,2013-07-08 00:45:00,
2013-07-07 20:55:00,74.2,73.0,29.90,SE,134,0.0,1.0,96,0.16,,,0.17,Wunderground v.1.15,2013-07-08 00:55:00,
2013-07-07 21:00:00,74.0,72.8,29.91,SE,134,0.0,0.0,96,0.07,,,0.17,Wunderground v.1.15,2013-07-08 01:00:00,
2013-07-07 21:05:00,73.9,72.7,29.91,SE,134,0.0,0.0,96,0.05,,,0.17,Wunderground v.1.15,2013-07-08 01:05:00,
2013-07-07 21:15:00,73.9,73.0,29.91,SE,140,0.0,0.0,97,0.00,,,0.17,Wunderground v.1.15,2013-07-08 01:15:00,
2013-07-07 21:25:00,73.7,72.8,29.91,SE,140,0.0,0.0,97,0.00,,,0.17,Wunderground v.1.15,2013-07-08 01:25:00,
2013-07-07 21:30:00,73.5,72.3,29.91,SE,140,0.0,0.0,96,0.00,,,0.17,Wunderground v.1.15,2013-07-08 01:30:00,
2013-07-07 21:40:00,73.3,72.4,29.91,SE,140,0.0,1.0,97,0.00,,,0.17,Wunderground v.1.15,2013-07-08 01:40:00,
2013-07-07 21:50:00,72.9,71.7,29.91,SE,140,0.0,0.0,96,0.00,,,0.17,Wunderground v.1.15,2013-07-08 01:50:00,
2013-07-07 22:00:00,72.7,71.8,29.91,SE,140,0.0,0.0,97,0.00,,,0.17,Wunderground v.1.15,2013-07-08 02:00:00,
2013-07-07 22:05:00,72.6,71.7,29.91,SE,140,0.0,0.0,97,0.00,,,0.17,Wunderground v.1.15,2013-07-08 02:05:00,
2013-07-07 22:15:00,72.5,71.6,29.90,SE,140,0.0,0.0,97,0.00,,,0.17,Wunderground v.1.15,2013-07-08 02:15:00,
2013-07-07 22:20:00,72.3,71.4,29.91,SE,140,0.0,0.0,97,0.00,,,0.17,Wunderground v.1.15,2013-07-08 02:20:00,
2013-07-07 22:30:00,72.1,71.2,29.91,SE,140,0.0,0.0,97,0.00,,,0.17,Wunderground v.1.15,2013-07-08 02:30:00,
2013-07-07 22:35:00,72.0,71.1,29.91,SE,140,0.0,0.0,97,0.00,,,0.17,Wunderground v.1.15,2013-07-08 02:35:00,
2013-07-07 22:45:00,72.0,71.1,29.91,SE,140,0.0,0.0,97,0.00,,,0.17,Wunderground v.1.15,2013-07-08 02:45:00,
2013-07-07 22:50:00,72.0,71.4,29.91,SE,140,0.0,0.0,98,0.00,,,0.17,Wunderground v.1.15,2013-07-08 02:50:00,
2013-07-07 23:00:00,72.0,71.4,29.92,SE,140,0.0,0.0,98,0.00,,,0.17,Wunderground v.1.15,2013-07-08 03:00:00,
2013-07-07 23:05:00,72.1,71.5,29.91,SE,140,0.0,0.0,98,0.00,,,0.17,Wunderground v.1.15,2013-07-08 03:05:00,
2013-07-07 23:15:00,72.0,71.4,29.92,SE,140,0.0,0.0,98,0.00,,,0.17,Wunderground v.1.15,2013-07-08 03:15:00,
2013-07-07 23:20:00,71.9,71.3,29.92,SE,140,0.0,0.0,98,0.00,,,0.17,Wunderground v.1.15,2013-07-08 03:20:00,
2013-07-07 23:25:00,71.9,71.3,29.91,SE,140,0.0,0.0,98,0.00,,,0.17,Wunderground v.1.15,2013-07-08 03:25:00,
2013-07-07 23:35:00,71.7,71.1,29.91,SE,140,0.0,0.0,98,0.00,,,0.17,Wunderground v.1.15,2013-07-08 03:35:00,
2013-07-07 23:40:00,71.7,71.1,29.91,SE,140,0.0,0.0,98,0.00,,,0.17,Wunderground v.1.15,2013-07-08 03:40:00,
2013-07-07 23:50:00,71.7,71.1,29.90,SE,140,0.0,1.0,98,0.00,,,0.17,Wunderground v.1.15,2013-07-08 03:50:00,
2013-07-07 23:55:00,71.6,71.0,29.90,SE,140,0.0,1.0,98,0.00,,,0.17,Wunderground v.1.15,2013-07-08 03:55:00,